Time;durP1;ratioP1;P1;durP2;ratioP2;P2;SDS_P1;SDS_P2;PMS_P1;PMS_P2;Temp;Humidity;BMP_temperature;BMP_pressure;BME280_temperature;BME280_humidity;BME280_pressure;Samples;Min_cycle;Max_cycle;Signal;HPM_P1;HPM_P2
2023/05/02 00:01:30;;;;;;;13.43;10.97;;;6.80;99.90;7.20;94162.00;;;;7398126;19;20120;-74
2023/05/02 00:04:04;;;;;;;14.57;10.37;;;6.80;99.90;7.20;94155.00;;;;7397334;19;20508;-74
2023/05/02 00:06:38;;;;;;;16.87;11.23;;;6.70;99.90;7.10;94167.00;;;;7397938;19;20175;-74
2023/05/02 00:09:14;;;;;;;18.07;12.43;;;6.70;99.90;7.20;94157.00;;;;7398346;19;20224;-74
2023/05/02 00:11:47;;;;;;;15.17;12.30;;;6.80;99.90;7.10;94158.00;;;;7397425;19;20161;-74
2023/05/02 00:14:21;;;;;;;12.90;10.70;;;6.70;99.90;7.10;94132.00;;;;7399955;19;20153;-73
2023/05/02 00:16:54;;;;;;;13.53;11.63;;;6.70;99.90;7.10;94137.00;;;;7398073;19;20137;-74
2023/05/02 00:19:27;;;;;;;16.63;12.07;;;6.60;99.90;7.10;94184.00;;;;7399465;19;20129;-74
2023/05/02 00:22:01;;;;;;;13.97;11.90;;;6.70;99.90;7.10;94037.00;;;;7397734;19;20136;-75
2023/05/02 00:24:28;;;;;;;15.87;11.93;;;6.60;99.90;7.00;94138.00;;;;7397531;19;20121;-74
2023/05/02 00:27:05;;;;;;;13.83;11.90;;;6.60;99.90;7.00;94141.00;;;;7397672;19;20478;-74
2023/05/02 00:29:38;;;;;;;16.10;12.33;;;6.50;99.90;6.90;94162.00;;;;7398870;19;20192;-74
2023/05/02 00:32:12;;;;;;;17.17;13.17;;;6.50;99.90;7.00;94178.00;;;;7393263;19;20227;-74
2023/05/02 00:34:39;;;;;;;16.27;12.17;;;6.50;99.90;6.90;94171.00;;;;7381142;19;20152;-74
2023/05/02 00:37:13;;;;;;;16.93;13.90;;;6.50;99.90;7.00;94169.00;;;;7398963;19;20140;-74
2023/05/02 00:39:41;;;;;;;14.67;12.40;;;6.50;99.90;6.90;94151.00;;;;7398905;19;20136;-74
2023/05/02 00:42:14;;;;;;;16.80;12.17;;;6.50;99.90;6.80;94160.00;;;;7396419;19;20165;-76
2023/05/02 00:44:41;;;;;;;16.53;12.13;;;6.40;99.90;6.80;94178.00;;;;7394888;19;20511;-77
2023/05/02 00:47:15;;;;;;;16.93;12.83;;;6.40;99.90;6.70;94142.00;;;;7399045;19;20153;-74
2023/05/02 00:49:42;;;;;;;14.60;11.67;;;6.30;99.90;6.60;94151.00;;;;7396759;19;20147;-74
2023/05/02 00:52:18;;;;;;;14.63;12.53;;;6.20;99.90;6.70;94167.00;;;;7394790;19;20212;-74
2023/05/02 00:54:52;;;;;;;16.17;12.90;;;6.20;99.90;6.70;94173.00;;;;7394803;19;20528;-75
2023/05/02 00:57:26;;;;;;;21.77;13.80;;;6.20;99.90;6.70;94128.00;;;;7397041;19;20156;-74
2023/05/02 00:59:53;;;;;;;17.73;13.20;;;6.30;99.90;6.70;94182.00;;;;7398247;19;20596;-74
2023/05/02 01:02:58;;;;;;;17.10;13.37;;;6.30;99.90;6.80;94163.00;;;;7389501;19;20196;-74
2023/05/02 01:05:53;;;;;;;18.97;14.23;;;6.30;99.90;6.70;94181.00;;;;7397264;19;20220;-76
2023/05/02 01:08:44;;;;;;;18.00;13.50;;;6.20;99.90;6.70;94167.00;;;;7398928;19;20602;-76
2023/05/02 01:11:44;;;;;;;18.83;13.93;;;6.20;99.90;6.70;94185.00;;;;7395483;19;20157;-75
2023/05/02 01:14:21;;;;;;;20.43;13.90;;;6.20;99.90;6.90;94161.00;;;;7396392;19;20216;-73
2023/05/02 01:16:57;;;;;;;19.83;14.33;;;6.30;99.90;6.80;94176.00;;;;7398019;19;20133;-76
2023/05/02 01:19:49;;;;;;;21.30;15.97;;;6.30;1.00;6.90;94163.00;;;;7395610;19;20173;-73
2023/05/02 01:22:27;;;;;;;21.63;16.03;;;6.30;1.00;7.10;94180.00;;;;7397087;19;20553;-74
2023/05/02 01:25:15;;;;;;;21.47;16.20;;;6.50;1.00;7.10;94177.00;;;;7395606;19;20149;-76
2023/05/02 01:28:15;;;;;;;20.53;15.30;;;6.50;1.00;7.20;94191.00;;;;7397237;19;20607;-76
2023/05/02 01:30:51;;;;;;;20.23;16.20;;;6.60;1.00;7.30;94184.00;;;;7395725;19;20149;-74
2023/05/02 01:33:21;;;;;;;27.07;16.93;;;6.60;1.00;7.40;94129.00;;;;7397949;19;20657;-76
2023/05/02 01:35:56;;;;;;;23.80;17.07;;;6.60;1.00;7.30;94179.00;;;;7396592;19;20618;-77
2023/05/02 01:38:25;;;;;;;23.97;16.30;;;6.70;1.00;7.30;94154.00;;;;7396491;19;20153;-75
2023/05/02 01:41:04;;;;;;;23.63;16.07;;;6.70;1.00;7.30;94165.00;;;;7392294;19;20149;-76
2023/05/02 01:43:40;;;;;;;24.70;17.10;;;6.70;1.00;7.40;94182.00;;;;7395186;19;20619;-77
2023/05/02 01:46:14;;;;;;;25.77;17.13;;;6.70;1.00;7.30;94172.00;;;;7404718;19;20137;-75
2023/05/02 01:48:48;;;;;;;24.53;15.23;;;6.70;1.00;7.20;94166.00;;;;7405240;19;20129;-76
2023/05/02 01:51:30;;;;;;;25.53;17.00;;;6.70;1.00;7.20;94201.00;;;;7404305;19;20129;-77
2023/05/02 01:54:07;;;;;;;23.93;17.37;;;6.80;1.00;7.40;94169.00;;;;7403745;19;20135;-76
2023/05/02 01:56:45;;;;;;;20.73;15.10;;;6.80;1.00;7.30;94141.00;;;;7404163;19;20147;-76
2023/05/02 01:59:18;;;;;;;21.43;15.03;;;6.80;1.00;7.30;94192.00;;;;7403240;19;20605;-75
2023/05/02 02:02:00;;;;;;;20.00;14.67;;;6.70;1.00;7.20;94198.00;;;;7400242;19;20698;-76
2023/05/02 02:04:38;;;;;;;22.83;14.53;;;6.70;1.00;7.10;94176.00;;;;7401239;19;20151;-74
2023/05/02 02:07:13;;;;;;;18.57;14.43;;;6.60;1.00;7.10;94194.00;;;;7402991;19;20674;-73
2023/05/02 02:09:41;;;;;;;18.00;13.73;;;6.50;1.00;7.10;94172.00;;;;7401640;19;20615;-75
2023/05/02 02:12:24;;;;;;;21.43;15.10;;;6.50;1.00;6.90;94206.00;;;;7401652;19;20607;-76
2023/05/02 02:15:26;;;;;;;23.03;14.33;;;6.40;1.00;6.80;94160.00;;;;7401998;19;20143;-74
2023/05/02 02:18:13;;;;;;;18.77;14.30;;;6.30;1.00;6.70;94197.00;;;;7402033;19;20176;-73
2023/05/02 02:20:49;;;;;;;19.10;13.60;;;6.20;1.00;6.50;94216.00;;;;7401794;19;20602;-74
2023/05/02 02:23:27;;;;;;;23.23;13.70;;;6.10;1.00;6.60;94191.00;;;;7402344;19;20128;-76
2023/05/02 02:26:03;;;;;;;24.00;13.83;;;6.10;1.00;6.60;94184.00;;;;7403160;19;20136;-74
2023/05/02 02:28:38;;;;;;;17.73;13.93;;;6.20;1.00;6.60;94194.00;;;;7400682;19;20499;-74
2023/05/02 02:31:05;;;;;;;20.77;14.87;;;6.20;1.00;6.60;94225.00;;;;7401564;19;20607;-76
2023/05/02 02:33:40;;;;;;;20.33;15.53;;;6.20;1.00;6.60;94189.00;;;;7398013;19;20514;-77
2023/05/02 02:36:33;;;;;;;20.27;15.17;;;6.20;1.00;6.70;94183.00;;;;7401574;19;20480;-75
2023/05/02 02:39:21;;;;;;;20.90;15.60;;;6.20;1.00;6.50;94229.00;;;;7401306;19;20145;-74
2023/05/02 02:42:13;;;;;;;22.03;15.83;;;6.20;1.00;6.60;94188.00;;;;7401750;19;20139;-76
2023/05/02 02:45:18;;;;;;;22.47;15.80;;;6.20;1.00;6.60;94233.00;;;;7400917;19;20133;-75
2023/05/02 02:48:18;;;;;;;19.43;14.07;;;6.20;1.00;6.70;94229.00;;;;7401014;19;20144;-73
2023/05/02 02:51:13;;;;;;;19.83;15.50;;;6.20;1.00;6.50;94222.00;;;;7402216;19;20163;-74
2023/05/02 02:54:28;;;;;;;22.20;15.97;;;6.20;1.00;6.50;94205.00;;;;7401279;19;20156;-75
2023/05/02 02:57:35;;;;;;;21.83;15.33;;;6.10;1.00;6.50;94219.00;;;;7399048;19;20168;-75
2023/05/02 03:00:16;;;;;;;21.33;15.13;;;6.00;1.00;6.40;94244.00;;;;7403027;19;20554;-77
2023/05/02 03:02:59;;;;;;;24.00;14.77;;;6.00;1.00;6.40;94251.00;;;;7399926;19;20531;-77
2023/05/02 03:05:34;;;;;;;20.30;14.30;;;6.00;1.00;6.40;94196.00;;;;7398734;19;20643;-74
2023/05/02 03:08:07;;;;;;;20.53;14.70;;;5.90;1.00;6.30;94247.00;;;;7400037;19;20163;-74
2023/05/02 03:10:34;;;;;;;18.73;14.70;;;5.90;1.00;6.30;94252.00;;;;7400893;19;20153;-75
2023/05/02 03:13:08;;;;;;;19.00;14.13;;;5.90;1.00;6.30;94210.00;;;;7400892;19;20220;-76
2023/05/02 03:15:50;;;;;;;18.73;13.10;;;5.90;1.00;6.20;94258.00;;;;7400848;19;20145;-75
2023/05/02 03:18:24;;;;;;;17.40;14.10;;;5.80;1.00;6.30;94213.00;;;;7398930;19;20155;-75
2023/05/02 03:20:58;;;;;;;18.57;14.13;;;5.90;1.00;6.40;94253.00;;;;7401908;19;20133;-74
2023/05/02 03:23:25;;;;;;;20.37;14.23;;;5.90;1.00;6.30;94240.00;;;;7400206;19;20496;-76
2023/05/02 03:25:59;;;;;;;20.10;13.67;;;5.90;1.00;6.30;94256.00;;;;7401016;19;20201;-77
2023/05/02 03:28:26;;;;;;;20.30;13.73;;;6.00;1.00;6.20;94260.00;;;;7398452;19;20174;-74
2023/05/02 03:31:00;;;;;;;16.93;13.47;;;5.80;1.00;6.30;94228.00;;;;7396583;19;20161;-75
2023/05/02 03:33:28;;;;;;;22.00;13.27;;;5.80;1.00;6.30;94274.00;;;;7399739;19;20143;-73
2023/05/02 03:36:01;;;;;;;19.33;14.17;;;5.80;1.00;6.20;94261.00;;;;7400564;19;20121;-75
2023/05/02 03:38:35;;;;;;;17.20;13.57;;;5.70;1.00;6.30;94274.00;;;;7393783;19;20125;-76
2023/05/02 03:41:09;;;;;;;17.13;13.33;;;5.70;1.00;6.20;94289.00;;;;7399946;19;20558;-73
2023/05/02 03:43:36;;;;;;;17.47;13.63;;;5.70;1.00;6.30;94249.00;;;;7399786;19;20477;-74
2023/05/02 03:46:10;;;;;;;18.03;13.53;;;5.80;1.00;6.30;94291.00;;;;7397830;19;20167;-76
2023/05/02 03:48:45;;;;;;;19.33;14.33;;;5.90;1.00;6.50;94272.00;;;;7398432;19;20137;-74
2023/05/02 03:51:18;;;;;;;19.50;14.40;;;6.00;1.00;6.40;94275.00;;;;7399278;19;20492;-75
2023/05/02 03:53:52;;;;;;;19.20;14.47;;;6.10;1.00;6.60;94269.00;;;;7400760;19;20133;-75
2023/05/02 03:56:26;;;;;;;19.87;14.47;;;6.10;1.00;6.60;94260.00;;;;7398135;19;20150;-73
2023/05/02 03:59:00;;;;;;;22.90;15.60;;;6.10;1.00;6.60;94275.00;;;;7398635;19;20549;-76
2023/05/02 04:01:34;;;;;;;22.00;16.83;;;6.20;1.00;6.60;94302.00;;;;7397734;19;20145;-73
2023/05/02 04:04:15;;;;;;;20.03;15.60;;;6.20;1.00;6.50;94299.00;;;;7398487;19;20148;-75
2023/05/02 04:06:42;;;;;;;24.50;17.00;;;6.20;1.00;6.50;94277.00;;;;7398025;19;20588;-75
2023/05/02 04:09:17;;;;;;;23.17;16.03;;;6.20;1.00;6.60;94291.00;;;;7395625;19;20164;-76
2023/05/02 04:11:46;;;;;;;23.40;17.80;;;6.20;1.00;6.60;94308.00;;;;7398994;19;20235;-77
2023/05/02 04:14:20;;;;;;;22.90;17.37;;;6.20;1.00;6.70;94288.00;;;;7398902;19;20140;-74
2023/05/02 04:16:53;;;;;;;19.83;15.50;;;6.10;1.00;6.70;94261.00;;;;7397418;19;20147;-74
2023/05/02 04:19:27;;;;;;;21.33;16.37;;;6.10;1.00;6.60;94295.00;;;;7398668;19;20136;-75
2023/05/02 04:21:54;;;;;;;19.70;15.27;;;6.10;1.00;6.50;94279.00;;;;7398349;19;20145;-76
2023/05/02 04:24:28;;;;;;;24.03;15.57;;;6.00;1.00;6.50;94311.00;;;;7397533;19;20172;-74
2023/05/02 04:26:55;;;;;;;25.47;16.30;;;5.90;1.00;6.50;94290.00;;;;7396432;19;20165;-75
2023/05/02 04:29:29;;;;;;;20.03;16.13;;;5.90;1.00;6.50;94283.00;;;;7395856;19;20143;-74
2023/05/02 04:31:56;;;;;;;19.77;15.00;;;5.90;1.00;6.50;94285.00;;;;7397404;19;20662;-75
2023/05/02 04:34:23;;;;;;;21.67;15.80;;;5.80;1.00;6.60;94311.00;;;;7398319;19;20145;-75
2023/05/02 04:36:57;;;;;;;20.97;16.00;;;5.80;1.00;6.60;94299.00;;;;7396529;19;20181;-75
2023/05/02 04:39:24;;;;;;;22.53;15.57;;;5.90;1.00;6.60;94279.00;;;;7397346;19;20845;-75
2023/05/02 04:41:58;;;;;;;21.90;16.13;;;6.00;1.00;6.60;94304.00;;;;7397915;19;20784;-74
2023/05/02 04:44:26;;;;;;;27.00;17.47;;;6.10;1.00;6.60;94312.00;;;;7397513;19;20204;-75
2023/05/02 04:46:53;;;;;;;18.17;12.70;;;6.10;1.00;6.60;94293.00;;;;7396317;19;20146;-76
2023/05/02 04:49:27;;;;;;;20.33;15.60;;;6.10;1.00;6.50;94286.00;;;;7395509;19;20839;-77
2023/05/02 04:51:55;;;;;;;20.53;13.17;;;6.10;1.00;6.40;94321.00;;;;7398350;19;20146;-74
2023/05/02 04:54:32;;;;;;;22.47;14.67;;;6.10;1.00;6.50;94281.00;;;;7397023;19;20154;-76
2023/05/02 04:57:02;;;;;;;23.87;17.37;;;6.10;1.00;6.70;94319.00;;;;7394901;19;20139;-76
2023/05/02 04:59:37;;;;;;;25.10;17.67;;;6.20;1.00;6.80;94296.00;;;;7394182;19;20160;-76
2023/05/02 05:02:11;;;;;;;27.57;19.27;;;6.30;1.00;7.00;94329.00;;;;7393427;19;20739;-77
2023/05/02 05:04:51;;;;;;;22.73;17.17;;;6.30;1.00;7.10;94305.00;;;;7391929;19;20138;-77
2023/05/02 05:07:25;;;;;;;26.77;18.43;;;6.40;1.00;7.20;94355.00;;;;7393851;19;20155;-74
2023/05/02 05:09:52;;;;;;;27.00;18.57;;;6.40;1.00;7.20;94351.00;;;;7395766;19;20607;-76
2023/05/02 05:12:27;;;;;;;24.90;19.50;;;6.50;1.00;7.40;94336.00;;;;7394507;19;20167;-74
2023/05/02 05:14:54;;;;;;;32.63;20.10;;;6.60;1.00;7.30;94344.00;;;;7398752;19;20137;-75
2023/05/02 05:17:27;;;;;;;25.30;19.10;;;6.70;1.00;7.30;94337.00;;;;7395081;19;20205;-76
2023/05/02 05:19:54;;;;;;;25.23;19.57;;;6.70;99.90;7.40;94366.00;;;;7400168;19;20155;-75
2023/05/02 05:22:47;;;;;;;28.40;20.30;;;6.80;99.90;7.50;94363.00;;;;7398911;19;20203;-73
2023/05/02 05:25:28;;;;;;;27.73;21.47;;;6.80;99.90;7.40;94352.00;;;;7400594;19;20494;-77
2023/05/02 05:28:02;;;;;;;24.80;19.77;;;6.90;99.90;7.40;94355.00;;;;7397304;19;20148;-74
2023/05/02 05:30:30;;;;;;;26.43;20.37;;;6.90;99.90;7.50;94382.00;;;;7404070;19;20801;-76
2023/05/02 05:33:03;;;;;;;25.93;19.67;;;7.00;99.90;7.40;94359.00;;;;7402613;19;20134;-75
2023/05/02 05:35:31;;;;;;;24.00;18.40;;;7.00;1.00;7.60;94373.00;;;;7401907;19;20610;-75
2023/05/02 05:38:05;;;;;;;22.23;18.10;;;7.00;1.00;7.70;94355.00;;;;7401363;19;20144;-74
2023/05/02 05:40:39;;;;;;;25.07;19.60;;;7.00;1.00;7.50;94378.00;;;;7402169;19;20145;-73
2023/05/02 05:43:13;;;;;;;23.40;18.77;;;7.00;1.00;7.60;94344.00;;;;7405201;19;20133;-74
2023/05/02 05:45:40;;;;;;;27.53;20.00;;;7.10;1.00;7.60;94374.00;;;;7403342;19;20143;-76
2023/05/02 05:48:14;;;;;;;23.17;18.50;;;7.10;1.00;7.60;94403.00;;;;7403301;19;20527;-74
2023/05/02 05:50:41;;;;;;;23.57;18.63;;;7.20;1.00;7.80;94406.00;;;;7405724;19;20128;-73
2023/05/02 05:53:15;;;;;;;22.45;18.52;;;7.20;1.00;8.20;94373.00;;;;7403993;19;20145;-76
2023/05/02 05:55:42;;;;;;;23.53;19.33;;;7.20;1.00;7.90;94409.00;;;;7402953;19;20168;-74
2023/05/02 05:58:10;;;;;;;24.47;17.87;;;7.30;1.00;7.90;94390.00;;;;7403425;19;20145;-76
2023/05/02 06:00:44;;;;;;;21.33;18.00;;;7.30;99.90;7.70;94382.00;;;;7403160;19;20599;-76
2023/05/02 06:03:25;;;;;;;22.43;17.90;;;7.30;99.90;7.90;94416.00;;;;7400885;19;20639;-75
2023/05/02 06:05:52;;;;;;;23.83;18.27;;;7.40;99.90;7.90;94408.00;;;;7386798;19;20501;-76
2023/05/02 06:08:26;;;;;;;20.83;17.87;;;7.50;99.90;8.00;94402.00;;;;7380954;19;20603;-75
2023/05/02 06:10:53;;;;;;;23.70;18.63;;;7.50;99.90;8.10;94397.00;;;;7386397;19;20188;-75
2023/05/02 06:13:27;;;;;;;24.10;19.60;;;7.70;99.90;8.20;94376.00;;;;7386474;19;20223;-74
2023/05/02 06:16:01;;;;;;;23.73;18.83;;;7.80;1.00;8.20;94413.00;;;;7386359;19;20137;-75
2023/05/02 06:18:29;;;;;;;21.90;17.88;;;7.90;1.00;8.60;94415.00;;;;7387422;19;20216;-75
2023/05/02 06:21:04;;;;;;;21.95;17.33;;;8.00;1.00;8.50;94428.00;;;;7384842;19;20156;-75
2023/05/02 06:23:38;;;;;;;21.05;18.75;;;8.10;1.00;8.50;94412.00;;;;7387914;19;20194;-74
2023/05/02 06:26:05;;;;;;;21.33;16.73;;;8.30;99.90;8.80;94414.00;;;;7386699;19;20139;-74
2023/05/02 06:28:32;;;;;;;21.60;17.85;;;8.40;99.90;8.60;94403.00;;;;7384389;19;20167;-75
2023/05/02 06:31:06;;;;;;;19.75;17.20;;;8.50;58.90;8.30;94420.00;;;;7379942;19;20152;-76
2023/05/02 06:33:35;;;;;;;21.92;18.30;;;8.60;1.00;8.50;94429.00;;;;7386604;19;20181;-75
2023/05/02 06:36:11;;;;;;;22.50;18.20;;;8.60;1.00;8.80;94406.00;;;;7386426;19;20147;-76
2023/05/02 06:38:39;;;;;;;22.75;16.70;;;8.60;1.00;8.70;94406.00;;;;7386195;19;20125;-76
2023/05/02 06:41:14;;;;;;;20.52;18.25;;;8.70;1.00;9.10;94410.00;;;;7385744;19;20619;-76
2023/05/02 06:43:44;;;;;;;20.17;17.88;;;8.70;1.00;9.10;94422.00;;;;7383762;19;20550;-74
2023/05/02 06:46:19;;;;;;;23.50;19.15;;;8.80;1.00;8.60;94429.00;;;;7386267;19;20136;-75
2023/05/02 06:48:52;;;;;;;26.95;21.67;;;9.00;1.00;9.30;94456.00;;;;7386886;19;20626;-75
2023/05/02 06:51:26;;;;;;;23.38;19.85;;;9.00;99.90;9.50;94412.00;;;;7387501;19;20149;-75
2023/05/02 06:53:53;;;;;;;24.88;20.58;;;9.00;1.00;9.40;94436.00;;;;7386091;19;20190;-76
2023/05/02 06:56:27;;;;;;;24.55;20.75;;;9.10;99.90;9.60;94415.00;;;;7384533;19;20145;-77
2023/05/02 06:58:56;;;;;;;31.67;24.25;;;9.10;1.00;9.40;94433.00;;;;7382393;19;20745;-76
2023/05/02 07:01:30;;;;;;;30.80;23.95;;;9.10;99.90;9.50;94452.00;;;;7382860;19;20132;-74
2023/05/02 07:04:04;;;;;;;29.73;24.85;;;9.20;99.90;9.40;94466.00;;;;7385180;19;20164;-74
2023/05/02 07:06:39;;;;;;;30.05;23.85;;;9.20;99.90;10.20;94454.00;;;;7383934;19;20132;-75
2023/05/02 07:09:06;;;;;;;33.28;26.80;;;9.40;99.90;9.80;94438.00;;;;7385782;19;20467;-76
2023/05/02 07:11:33;;;;;;;33.40;25.05;;;9.60;1.00;10.30;94466.00;;;;7387023;19;20208;-75
2023/05/02 07:14:07;;;;;;;31.80;25.92;;;9.60;1.00;10.10;94428.00;;;;7386367;19;20495;-76
2023/05/02 07:16:41;;;;;;;36.38;26.65;;;9.70;1.00;10.20;94447.00;;;;7384841;19;20150;-75
2023/05/02 07:19:08;;;;;;;30.98;26.60;;;9.70;1.00;9.80;94501.00;;;;7385568;19;22149;-76
2023/05/02 07:21:42;;;;;;;33.58;26.45;;;9.60;99.90;10.00;94481.00;;;;7386166;19;20133;-76
2023/05/02 07:24:16;;;;;;;38.60;27.98;;;9.40;1.00;9.60;94495.00;;;;7385422;19;20206;-73
2023/05/02 07:26:51;;;;;;;35.45;28.05;;;9.10;1.00;9.40;94487.00;;;;7385015;19;20141;-75
2023/05/02 07:29:25;;;;;;;39.67;29.63;;;9.00;1.00;9.20;94496.00;;;;7386573;19;20639;-74
2023/05/02 07:31:53;;;;;;;36.90;29.58;;;9.00;1.00;9.70;94483.00;;;;7381125;19;20140;-75
2023/05/02 07:34:26;;;;;;;39.97;29.45;;;9.10;1.00;9.20;94512.00;;;;7384786;19;20152;-75
2023/05/02 07:36:53;;;;;;;38.33;29.20;;;9.20;1.00;9.10;94509.00;;;;7384735;19;20164;-75
2023/05/02 07:39:27;;;;;;;39.70;30.90;;;9.20;99.90;9.40;94493.00;;;;7384934;19;20474;-75
2023/05/02 07:41:56;;;;;;;40.55;29.73;;;9.20;99.90;9.40;94501.00;;;;7386724;19;20571;-76
2023/05/02 07:44:32;;;;;;;35.35;30.08;;;9.20;99.90;9.60;94522.00;;;;7385759;19;20128;-76
2023/05/02 07:46:59;;;;;;;37.97;30.50;;;9.20;1.00;9.70;94501.00;;;;7384464;19;23151;-75
2023/05/02 07:49:32;;;;;;;42.65;31.08;;;9.30;99.90;9.50;94501.00;;;;7385937;19;20125;-74
2023/05/02 07:52:20;;;;;;;45.65;31.70;;;9.20;99.90;9.30;94517.00;;;;7385791;19;20144;-75
2023/05/02 07:55:14;;;;;;;42.42;31.13;;;9.30;99.90;9.70;94519.00;;;;7384791;19;20156;-75
2023/05/02 07:57:48;;;;;;;38.92;31.55;;;9.20;99.90;9.40;94462.00;;;;7385490;19;20132;-75
2023/05/02 08:00:16;;;;;;;41.85;31.88;;;9.40;99.90;9.70;94503.00;;;;7385398;19;20124;-76
2023/05/02 08:02:58;;;;;;;42.10;30.55;;;9.30;99.90;10.40;94517.00;;;;7385647;19;20528;-75
2023/05/02 08:05:32;;;;;;;37.45;30.05;;;9.60;99.90;10.50;94521.00;;;;7383843;19;20145;-76
2023/05/02 08:08:06;;;;;;;36.85;30.77;;;9.90;99.90;10.10;94489.00;;;;7384731;19;20125;-75
2023/05/02 08:10:33;;;;;;;40.17;28.90;;;10.20;1.00;10.40;94528.00;;;;7384572;19;20133;-75
2023/05/02 08:13:07;;;;;;;35.55;28.23;;;10.50;99.90;10.50;94489.00;;;;7384758;19;20155;-75
2023/05/02 08:15:41;;;;;;;36.83;29.67;;;10.80;99.90;11.00;94524.00;;;;7384280;19;20160;-77
2023/05/02 08:18:09;;;;;;;35.92;28.75;;;11.00;99.90;11.30;94491.00;;;;7384691;19;20489;-75
2023/05/02 08:20:43;;;;;;;35.05;26.38;;;11.20;91.90;11.10;94504.00;;;;7384627;19;20133;-75
2023/05/02 08:23:10;;;;;;;36.28;29.08;;;11.10;10.90;10.70;94525.00;;;;7381262;19;20627;-75
2023/05/02 08:25:44;;;;;;;40.67;30.48;;;11.10;1.00;10.70;94517.00;;;;7382212;19;21419;-75
2023/05/02 08:28:19;;;;;;;37.47;29.58;;;11.10;1.00;11.10;94525.00;;;;7382787;19;20156;-74
2023/05/02 08:30:52;;;;;;;36.92;29.35;;;11.10;45.00;12.30;94510.00;;;;7382546;19;20136;-76
2023/05/02 08:33:26;;;;;;;36.83;29.35;;;11.50;99.90;12.50;94469.00;;;;7382971;19;20493;-74
2023/05/02 08:36:13;;;;;;;34.70;28.48;;;11.90;1.00;12.80;94493.00;;;;7382408;19;20479;-75
2023/05/02 08:38:48;;;;;;;37.38;28.92;;;12.40;1.00;13.40;94517.00;;;;7383732;19;20129;-73
2023/05/02 08:41:23;;;;;;;32.55;27.90;;;12.80;1.00;13.70;94489.00;;;;7383232;19;20154;-73
2023/05/02 08:43:50;;;;;;;35.45;27.98;;;13.10;99.90;14.00;94495.00;;;;7383998;19;20530;-76
2023/05/02 08:46:25;;;;;;;31.23;26.23;;;13.20;99.90;13.00;94531.00;;;;7379826;19;20160;-74
2023/05/02 08:49:01;;;;;;;30.88;26.83;;;13.10;99.90;12.10;94533.00;;;;7382594;19;20156;-75
2023/05/02 08:51:37;;;;;;;33.63;28.58;;;12.90;99.90;11.30;94538.00;;;;7382751;19;20129;-76
2023/05/02 08:54:09;;;;;;;33.28;28.95;;;12.50;99.90;11.30;94489.00;;;;7381647;19;20759;-75
2023/05/02 08:56:42;;;;;;;35.55;28.50;;;12.30;99.90;11.50;94543.00;;;;7383097;19;20472;-75
2023/05/02 08:59:10;;;;;;;33.42;28.67;;;12.10;99.90;12.10;94533.00;;;;7383562;19;20205;-74
2023/05/02 09:01:47;;;;;;;41.20;31.65;;;11.80;1.00;11.90;94481.00;;;;7381755;19;20572;-76
2023/05/02 09:04:28;;;;;;;43.00;33.20;;;12.00;99.90;13.10;94499.00;;;;7381801;19;20188;-75
2023/05/02 09:07:10;;;;;;;35.90;30.30;;;12.20;1.00;13.60;94531.00;;;;7382789;19;20136;-74
2023/05/02 09:09:37;;;;;;;38.33;30.73;;;12.90;99.90;15.20;94535.00;;;;7382925;19;20602;-75
2023/05/02 09:12:11;;;;;;;35.72;28.00;;;13.30;99.90;15.30;94548.00;;;;7381765;19;20149;-76
2023/05/02 09:14:42;;;;;;;35.45;27.63;;;13.60;99.90;15.10;94567.00;;;;7382259;19;20153;-76
2023/05/02 09:17:12;;;;;;;32.35;26.60;;;13.80;99.90;14.70;94528.00;;;;7382487;19;20153;-75
2023/05/02 09:19:58;;;;;;;32.92;26.50;;;13.70;99.90;13.30;94574.00;;;;7380921;19;20478;-74
2023/05/02 09:22:33;;;;;;;31.00;25.55;;;13.70;20.00;12.40;94578.00;;;;7383287;19;20227;-77
2023/05/02 09:25:07;;;;;;;29.85;26.42;;;13.40;21.00;12.30;94562.00;;;;7380716;19;20153;-76
2023/05/02 09:27:55;;;;;;;30.33;25.27;;;13.30;29.80;13.20;94554.00;;;;7381808;19;20132;-73
2023/05/02 09:30:28;;;;;;;28.65;23.65;;;13.60;17.60;14.30;94518.00;;;;7382615;19;20136;-73
2023/05/02 09:33:02;;;;;;;29.02;25.50;;;14.00;14.40;15.20;94546.00;;;;7377156;19;20212;-74
2023/05/02 09:35:59;;;;;;;28.65;24.58;;;14.60;1.00;15.30;94567.00;;;;7381217;19;20134;-75
2023/05/02 09:38:27;;;;;;;28.30;24.40;;;14.70;1.00;15.70;94565.00;;;;7380328;19;20156;-74
2023/05/02 09:41:02;;;;;;;28.30;24.90;;;15.00;34.90;16.30;94523.00;;;;7381219;19;20133;-74
2023/05/02 09:43:36;;;;;;;29.75;24.25;;;15.40;1.00;17.50;94550.00;;;;7380815;19;20157;-74
2023/05/02 09:46:10;;;;;;;27.67;23.20;;;15.90;1.00;17.20;94563.00;;;;7381701;19;20195;-74
2023/05/02 09:48:55;;;;;;;25.77;22.98;;;16.20;1.00;17.20;94574.00;;;;7381083;19;20160;-75
2023/05/02 09:51:30;;;;;;;24.35;20.08;;;15.80;1.00;16.20;94529.00;;;;7380843;19;20129;-74
2023/05/02 09:54:05;;;;;;;21.88;19.58;;;16.10;1.00;15.20;94562.00;;;;7381920;19;20160;-74
2023/05/02 09:56:56;;;;;;;20.77;18.52;;;16.40;1.00;15.10;94578.00;;;;7381722;19;20121;-74
2023/05/02 09:59:30;;;;;;;25.23;19.75;;;16.30;1.00;17.50;94491.00;;;;7380144;19;20163;-73
2023/05/02 10:02:08;;;;;;;23.25;20.08;;;16.30;1.00;19.70;94525.00;;;;7379890;19;20168;-74
2023/05/02 10:04:52;;;;;;;23.05;19.27;;;16.90;1.00;21.10;94509.00;;;;7381455;19;20165;-75
2023/05/02 10:07:27;;;;;;;21.65;19.35;;;18.10;1.00;21.50;94560.00;;;;7384096;19;20138;-76
2023/05/02 10:10:02;;;;;;;20.52;17.77;;;18.70;1.00;19.90;94570.00;;;;7386634;19;20176;-73
2023/05/02 10:12:38;;;;;;;20.30;18.15;;;18.70;1.00;17.70;94541.00;;;;7382128;19;20207;-73
2023/05/02 10:15:15;;;;;;;19.60;17.63;;;18.00;1.00;17.60;94556.00;;;;7386286;19;20133;-77
2023/05/02 10:17:51;;;;;;;19.48;17.50;;;17.70;1.00;18.00;94549.00;;;;7385719;19;20157;-78
2023/05/02 10:20:35;;;;;;;21.00;18.70;;;17.50;1.00;19.20;94547.00;;;;7388755;19;20152;-76
2023/05/02 10:23:04;;;;;;;22.23;18.58;;;17.60;1.00;18.70;94563.00;;;;7387161;19;20140;-74
2023/05/02 10:25:39;;;;;;;18.98;16.92;;;17.90;1.00;17.30;94579.00;;;;7386196;19;20176;-76
2023/05/02 10:28:14;;;;;;;21.38;18.55;;;17.80;1.00;15.10;94576.00;;;;7386248;19;20643;-75
2023/05/02 10:30:42;;;;;;;20.90;18.58;;;17.40;1.00;16.40;94554.00;;;;7383152;19;20205;-75
2023/05/02 10:33:19;;;;;;;21.92;19.38;;;17.20;1.00;16.70;94569.00;;;;7388425;19;20132;-74
2023/05/02 10:35:47;;;;;;;24.90;18.83;;;17.20;1.00;17.90;94565.00;;;;7388059;19;20153;-73
2023/05/02 10:38:23;;;;;;;19.52;17.48;;;17.30;1.00;16.00;94578.00;;;;7385754;19;20163;-75
2023/05/02 10:40:57;;;;;;;21.08;17.83;;;17.20;1.00;14.90;94557.00;;;;7387373;19;20209;-73
2023/05/02 10:43:36;;;;;;;20.45;18.25;;;16.60;1.00;14.00;94573.00;;;;7386073;19;20137;-75
2023/05/02 10:46:39;;;;;;;20.63;18.08;;;15.90;1.00;14.00;94603.00;;;;7385060;19;20485;-74
2023/05/02 10:49:13;;;;;;;20.90;18.20;;;15.50;1.00;14.50;94601.00;;;;7385240;19;20129;-76
2023/05/02 10:51:42;;;;;;;20.20;18.00;;;15.10;1.00;14.20;94586.00;;;;7386606;19;20147;-73
2023/05/02 10:54:20;;;;;;;24.02;17.75;;;15.10;1.00;17.10;94522.00;;;;7384891;19;20177;-75
2023/05/02 10:57:03;;;;;;;24.42;18.80;;;15.50;1.00;18.50;94555.00;;;;7386848;19;20133;-73
2023/05/02 10:59:42;;;;;;;19.23;16.75;;;16.60;1.00;17.40;94584.00;;;;7380913;19;20129;-75
2023/05/02 11:02:22;;;;;;;18.85;16.80;;;16.70;1.00;16.20;94582.00;;;;7384194;19;20521;-74
2023/05/02 11:05:12;;;;;;;21.27;17.65;;;16.40;1.00;14.30;94589.00;;;;7387021;19;20148;-76
2023/05/02 11:07:46;;;;;;;19.23;16.55;;;16.10;1.00;13.70;94566.00;;;;7384825;19;20133;-74
2023/05/02 11:10:16;;;;;;;19.05;16.98;;;15.50;1.00;13.60;94591.00;;;;7386232;19;20129;-73
2023/05/02 11:12:53;;;;;;;19.77;17.35;;;15.00;1.00;14.40;94595.00;;;;7386476;19;20153;-75
2023/05/02 11:15:26;;;;;;;26.15;17.05;;;14.60;1.00;14.20;94595.00;;;;7385866;19;20125;-75
2023/05/02 11:18:13;;;;;;;19.73;17.63;;;14.50;1.00;15.10;94544.00;;;;7384028;19;20541;-74
2023/05/02 11:20:46;;;;;;;20.17;16.60;;;14.70;1.00;16.70;94555.00;;;;7385175;19;20129;-74
2023/05/02 11:23:24;;;;;;;17.45;15.65;;;15.90;1.00;18.40;94539.00;;;;7388118;19;20136;-74
2023/05/02 11:26:02;;;;;;;19.98;15.63;;;17.00;1.00;18.20;94530.00;;;;7386420;19;20482;-76
2023/05/02 11:28:35;;;;;;;16.75;15.05;;;17.80;1.00;19.70;94527.00;;;;7385406;19;20132;-74
2023/05/02 11:31:28;;;;;;;20.42;16.42;;;19.00;1.00;17.40;94568.00;;;;7381679;19;20644;-73